Weather at Former Skopje Airport [CLOSED]

Public forecast

Using degrees Celsius for public forecast. Weather courtesy of forecast.io.

Closest aviation weather report (METAR) to Former Skopje Airport

Closest report is Skopje International Airport, 6.8 nm (12.5 km) ESE.

2024/03/01 00:50 (retrieved 30 minutes ago)

LWSK 010050Z VRB02KT 9999 BKN050 OVC070 11/08 Q1014 NOSIG

Closest aviation forecast (TAF) to Former Skopje Airport

Forecast is more than 12 hours old.

Closest forecast is Kuk√ęs International Airport, 47.4 nm (87.8 km) W.

2024/02/29 12:00 Ammendment (retrieved 13 hours ago)

TAF AMD LAKU 291500Z 2912/0112 CNL